createdAt,value
2019-02-26T00:02:02.369Z,17.97
2019-02-26T00:04:32.610Z,18.67
2019-02-26T00:07:01.228Z,18.33
2019-02-26T00:09:33.077Z,18.47
2019-02-26T00:12:01.968Z,17.73
2019-02-26T00:14:30.942Z,18.10
2019-02-26T00:17:00.240Z,18.63
2019-02-26T00:19:29.355Z,18.67
2019-02-26T00:21:58.792Z,18.93
2019-02-26T00:24:30.559Z,18.53
2019-02-26T00:27:00.963Z,19.53
2019-02-26T00:29:30.394Z,18.37
2019-02-26T00:32:00.426Z,17.60
2019-02-26T00:34:30.500Z,18.87
2019-02-26T00:37:01.783Z,19.07
2019-02-26T00:39:31.532Z,19.07
2019-02-26T00:42:02.528Z,18.33
2019-02-26T00:44:32.740Z,18.70
2019-02-26T00:47:04.450Z,18.77
2019-02-26T00:49:32.987Z,18.10
2019-02-26T00:52:03.834Z,18.87
2019-02-26T00:54:34.383Z,18.97
2019-02-26T00:57:03.955Z,18.63
2019-02-26T00:59:36.632Z,18.13
2019-02-26T01:02:06.056Z,18.67
2019-02-26T01:04:34.932Z,17.50
2019-02-26T03:56:37.956Z,19.90
2019-02-26T03:59:09.531Z,20.47
2019-02-26T04:01:38.138Z,19.83
2019-02-26T04:04:07.740Z,19.10
2019-02-26T04:06:38.915Z,20.53
2019-02-26T04:09:08.543Z,20.83
2019-02-26T04:11:39.334Z,21.47
2019-02-26T04:14:12.476Z,20.93
2019-02-26T04:16:41.162Z,20.20
2019-02-26T04:19:10.966Z,22.13
2019-02-26T04:22:18.980Z,21.37
2019-02-26T04:24:47.038Z,20.87
2019-02-26T04:27:48.761Z,22.07
2019-02-26T04:31:26.835Z,21.33
2019-02-26T04:34:35.785Z,20.33
2019-02-26T04:38:06.341Z,20.67
2019-02-26T04:41:15.710Z,20.73
2019-02-26T04:44:14.438Z,19.60
2019-02-26T04:47:13.921Z,20.40
2019-02-26T04:49:43.256Z,19.90
2019-02-26T04:52:14.362Z,21.77
2019-02-26T04:54:43.688Z,22.57
2019-02-26T04:57:12.559Z,22.37
2019-02-26T04:59:43.916Z,23.60
2019-02-26T05:02:12.093Z,22.87
2019-02-26T05:04:42.142Z,22.57
2019-02-26T05:07:15.680Z,22.67
2019-02-26T05:09:43.037Z,21.30
2019-02-26T05:12:12.014Z,22.70
2019-02-26T05:14:41.224Z,23.20
2019-02-26T05:17:10.332Z,21.50
2019-02-26T05:19:42.332Z,22.67
2019-02-26T05:22:10.301Z,21.33
2019-02-26T05:24:42.410Z,22.60
2019-02-26T05:27:22.320Z,22.77
2019-02-26T05:29:52.559Z,21.90
2019-02-26T05:32:21.813Z,22.43
2019-02-26T05:34:50.982Z,21.57
2019-02-26T05:37:19.922Z,20.87
2019-02-26T05:39:51.055Z,21.80
2019-02-26T05:42:35.167Z,21.83
2019-02-26T05:48:08.579Z,21.90
2019-02-26T05:50:38.663Z,22.50
2019-02-26T05:53:10.484Z,20.70
2019-02-26T05:55:41.633Z,23.50
2019-02-26T05:58:12.576Z,24.47
2019-02-26T06:00:41.281Z,22.20
2019-02-26T06:03:12.818Z,23.33
2019-02-26T06:05:45.556Z,23.70
2019-02-26T06:08:13.086Z,23.30
2019-02-26T06:10:42.281Z,24.30
2019-02-26T06:13:15.512Z,23.97
2019-02-26T06:15:43.774Z,23.97
2019-02-26T06:18:12.696Z,23.47
2019-02-26T06:20:41.602Z,23.37
2019-02-26T06:23:10.462Z,23.27
2019-02-26T06:25:39.599Z,23.57
2019-02-26T06:28:12.548Z,23.70
2019-02-26T06:30:40.321Z,23.47
2019-02-26T06:33:11.630Z,22.57
2019-02-26T06:35:46.149Z,23.37
2019-02-26T06:38:15.063Z,22.47
2019-02-26T06:40:47.029Z,22.63
2019-02-26T06:43:14.673Z,24.27
2019-02-26T06:45:45.369Z,23.93
2019-02-26T06:48:16.983Z,23.63
2019-02-26T06:50:44.775Z,23.70
2019-02-26T06:53:16.659Z,23.30
2019-02-26T06:55:45.495Z,22.67
2019-02-26T06:58:25.330Z,23.30
2019-02-26T07:00:55.493Z,23.37
2019-02-26T07:03:25.010Z,24.73
2019-02-26T07:05:54.137Z,23.00
2019-02-26T07:08:24.235Z,25.40
2019-02-26T07:10:54.045Z,24.50
2019-02-26T07:13:23.895Z,24.80
2019-02-26T07:15:52.804Z,24.90
2019-02-26T07:18:21.805Z,24.03
2019-02-26T07:20:57.719Z,27.40
2019-02-26T07:23:38.198Z,26.37
2019-02-26T07:28:48.754Z,24.60
2019-02-26T07:31:18.042Z,24.47
2019-02-26T07:33:51.522Z,26.37
2019-02-26T07:43:44.051Z,28.17
2019-02-26T07:46:33.299Z,28.77
2019-02-26T07:49:04.759Z,31.53
2019-02-26T07:51:36.405Z,30.37
2019-02-26T07:54:06.119Z,29.60
2019-02-26T07:56:34.997Z,29.87
2019-02-26T07:59:07.098Z,32.77
2019-02-26T08:01:35.402Z,32.67
2019-02-26T08:04:06.230Z,29.40
2019-02-26T08:06:36.182Z,32.33
2019-02-26T08:09:12.179Z,34.30
2019-02-26T08:11:43.814Z,33.37
2019-02-26T08:14:14.352Z,33.50
2019-02-26T08:16:43.054Z,32.70
2019-02-26T08:19:11.950Z,32.10
2019-02-26T08:21:41.342Z,31.80
2019-02-26T08:24:12.376Z,31.37
2019-02-26T08:26:43.018Z,30.87
2019-02-26T08:29:12.656Z,31.10
2019-02-26T08:31:47.468Z,31.90
2019-02-26T08:34:18.659Z,29.70
2019-02-26T08:36:50.343Z,31.53
2019-02-26T08:39:19.359Z,30.33
2019-02-26T08:42:06.363Z,30.33
2019-02-26T08:44:35.327Z,32.30
2019-02-26T08:47:08.709Z,30.63
2019-02-26T08:49:37.838Z,31.57
2019-02-26T08:52:08.569Z,31.40
2019-02-26T08:54:44.787Z,31.60
2019-02-26T08:57:12.012Z,30.40
2019-02-26T08:59:45.278Z,31.40
2019-02-26T09:02:17.591Z,30.53
2019-02-26T09:04:47.854Z,30.00
2019-02-26T09:07:18.964Z,30.47
2019-02-26T09:09:48.149Z,29.60
2019-02-26T09:12:19.840Z,30.23
2019-02-26T09:14:50.062Z,29.30
2019-02-26T09:17:23.156Z,29.63
2019-02-26T09:19:54.667Z,29.00
2019-02-26T09:22:23.606Z,29.40
2019-02-26T09:24:54.376Z,29.07
2019-02-26T09:27:24.811Z,30.63
2019-02-26T09:29:53.966Z,29.87
2019-02-26T09:32:22.930Z,30.90
2019-02-26T09:34:52.476Z,31.93
2019-02-26T09:37:22.643Z,29.87
2019-02-26T09:39:52.442Z,31.30
2019-02-26T09:42:25.107Z,30.03
2019-02-26T09:44:55.415Z,30.17
2019-02-26T09:47:31.558Z,29.43
2019-02-26T09:50:00.873Z,29.67
2019-02-26T09:52:32.452Z,30.00
2019-02-26T09:55:00.777Z,29.03
2019-02-26T09:57:29.677Z,29.70
2019-02-26T10:00:00.235Z,29.53
2019-02-26T10:02:29.897Z,29.60
2019-02-26T10:04:58.843Z,28.83
2019-02-26T10:07:28.493Z,29.53
2019-02-26T10:10:00.505Z,29.53
2019-02-26T10:12:32.049Z,28.77
2019-02-26T10:15:02.445Z,30.20
2019-02-26T10:17:33.446Z,28.37
2019-02-26T10:20:04.359Z,28.20
2019-02-26T10:22:33.328Z,27.20
2019-02-26T10:25:03.732Z,27.30
2019-02-26T10:27:35.762Z,27.13
2019-02-26T10:30:07.187Z,27.53
2019-02-26T10:32:33.969Z,27.17
2019-02-26T10:35:04.616Z,27.53
2019-02-26T10:37:36.935Z,26.43
2019-02-26T10:40:07.649Z,26.53
2019-02-26T10:42:39.785Z,26.57
2019-02-26T10:45:07.703Z,26.73
2019-02-26T10:47:36.878Z,24.43
2019-02-26T10:50:07.497Z,23.10
2019-02-26T10:52:38.846Z,22.40
2019-02-26T10:55:08.141Z,23.10
2019-02-26T10:57:38.488Z,24.30
2019-02-26T11:00:31.195Z,23.17
2019-02-26T11:03:20.120Z,22.67
2019-02-26T11:05:51.842Z,24.47
2019-02-26T11:08:20.770Z,23.50
2019-02-26T11:10:52.196Z,22.70
2019-02-26T11:13:23.072Z,22.63
2019-02-26T11:15:57.402Z,22.40
2019-02-26T11:18:34.622Z,21.40
2019-02-26T11:27:07.392Z,22.50
2019-02-26T11:29:38.238Z,21.23
2019-02-26T11:32:07.835Z,21.10
2019-02-26T11:34:38.296Z,21.63
2019-02-26T11:37:08.837Z,21.57
2019-02-26T11:39:38.003Z,21.60
2019-02-26T11:42:06.923Z,20.80
2019-02-26T11:44:35.939Z,20.27
2019-02-26T11:47:04.934Z,19.37
2019-02-26T11:49:41.669Z,22.00
2019-02-26T11:52:10.716Z,20.90
2019-02-26T11:54:48.004Z,21.37
2019-02-26T11:57:17.831Z,20.43
2019-02-26T11:59:46.899Z,22.03
2019-02-26T12:02:25.193Z,22.00
2019-02-26T12:04:47.606Z,22.43
2019-02-26T12:07:16.456Z,19.87
2019-02-26T12:09:45.359Z,20.00
2019-02-26T12:12:14.315Z,19.17
2019-02-26T12:14:45.786Z,20.27
2019-02-26T12:17:14.046Z,20.93
2019-02-26T12:19:42.962Z,20.47
2019-02-26T12:22:12.223Z,20.47
2019-02-26T12:24:41.754Z,20.17
2019-02-26T12:27:16.278Z,20.43
2019-02-26T12:29:43.621Z,20.53
2019-02-26T12:32:14.200Z,20.33
2019-02-26T12:34:45.453Z,18.77
2019-02-26T12:37:14.181Z,20.60
2019-02-26T12:39:44.378Z,18.47
2019-02-26T12:42:26.435Z,18.70
2019-02-26T12:44:57.593Z,18.63
2019-02-26T12:47:27.729Z,17.90
2019-02-26T12:50:18.634Z,15.97
2019-02-26T12:52:47.494Z,16.53
2019-02-26T12:55:17.019Z,17.47
2019-02-26T12:57:47.253Z,16.17
2019-02-26T13:00:43.999Z,17.30
2019-02-26T13:03:15.676Z,16.83
2019-02-26T13:05:45.645Z,16.53
2019-02-26T13:08:18.937Z,16.63
2019-02-26T13:10:49.586Z,17.50
2019-02-26T13:13:16.602Z,18.90
2019-02-26T13:15:45.803Z,17.70
2019-02-26T13:18:25.264Z,17.33
2019-02-26T13:20:59.545Z,16.00
2019-02-26T13:23:25.306Z,15.37
2019-02-26T13:25:54.208Z,16.63
2019-02-26T13:28:29.333Z,17.10
2019-02-26T13:30:54.070Z,17.83
2019-02-26T13:33:27.485Z,18.50
2019-02-26T13:35:58.789Z,16.80
2019-02-26T13:38:28.961Z,17.37
2019-02-26T13:41:19.959Z,17.67
2019-02-26T13:43:28.631Z,18.30
2019-02-26T13:45:57.644Z,19.60
2019-02-26T13:48:26.723Z,21.07
2019-02-26T13:50:55.881Z,18.70
2019-02-26T13:53:25.141Z,18.17
2019-02-26T13:55:54.194Z,18.23
2019-02-26T13:58:22.979Z,18.60
2019-02-26T14:00:52.134Z,19.17
2019-02-26T14:03:21.231Z,18.53
2019-02-26T14:05:50.046Z,19.03
2019-02-26T14:08:19.127Z,18.73
2019-02-26T14:10:48.414Z,17.17
2019-02-26T14:13:17.368Z,17.00
2019-02-26T14:15:46.385Z,15.40
2019-02-26T14:18:15.221Z,15.67
2019-02-26T14:20:45.503Z,15.90
2019-02-26T14:23:14.511Z,16.70
2019-02-26T14:25:43.988Z,16.57
2019-02-26T14:28:13.166Z,14.43
2019-02-26T14:30:42.115Z,16.00
2019-02-26T14:33:11.263Z,16.50
2019-02-26T14:35:40.327Z,15.73
2019-02-26T14:38:09.124Z,15.73
2019-02-26T14:40:38.196Z,15.70
2019-02-26T14:43:07.581Z,16.50
2019-02-26T14:45:36.611Z,15.83
2019-02-26T14:48:05.619Z,17.10
2019-02-26T14:50:34.828Z,16.73
2019-02-26T14:53:03.680Z,16.73
2019-02-26T14:55:32.586Z,17.03
2019-02-26T14:58:01.616Z,17.00
2019-02-26T15:00:30.600Z,16.57
2019-02-26T15:02:59.659Z,18.00
2019-02-26T15:05:28.874Z,16.77
2019-02-26T15:07:57.755Z,17.27
2019-02-26T15:10:26.629Z,17.70
2019-02-26T15:12:55.793Z,18.80
2019-02-26T15:15:24.785Z,17.70
2019-02-26T15:17:53.748Z,17.80
2019-02-26T15:20:22.615Z,18.50
2019-02-26T15:22:51.646Z,17.93
2019-02-26T15:25:23.196Z,19.20
2019-02-26T15:27:52.554Z,19.30
2019-02-26T15:30:21.951Z,20.33
2019-02-26T15:32:50.918Z,19.20
2019-02-26T15:35:19.942Z,20.70
2019-02-26T15:37:48.873Z,20.05
2019-02-26T15:40:17.885Z,20.60
2019-02-26T15:42:46.908Z,20.40
2019-02-26T15:45:23.895Z,21.40
2019-02-26T15:47:51.098Z,20.30
2019-02-26T15:50:20.116Z,21.15
2019-02-26T15:52:52.627Z,21.10
2019-02-26T15:55:21.857Z,21.00
2019-02-26T15:57:50.561Z,20.90
2019-02-26T16:00:20.585Z,20.73
2019-02-26T16:02:50.788Z,20.77
2019-02-26T16:05:20.689Z,20.47
2019-02-26T16:07:50.005Z,17.43
2019-02-26T16:10:19.460Z,16.60
2019-02-26T16:12:49.871Z,17.10
2019-02-26T16:15:18.844Z,16.23
2019-02-26T16:17:47.907Z,16.40
2019-02-26T16:20:18.267Z,15.20
2019-02-26T16:22:48.012Z,16.33
2019-02-26T16:25:17.066Z,15.53
2019-02-26T16:27:49.023Z,17.17
2019-02-26T16:30:19.604Z,16.40
2019-02-26T16:32:49.101Z,16.93
2019-02-26T16:35:19.563Z,17.23
2019-02-26T16:37:48.544Z,17.03
2019-02-26T16:40:17.515Z,17.37
2019-02-26T16:42:46.807Z,17.70
2019-02-26T16:45:17.518Z,16.50
2019-02-26T16:47:48.709Z,16.77
2019-02-26T16:50:18.671Z,16.67
2019-02-26T16:52:53.482Z,18.37
2019-02-26T16:55:28.721Z,17.00
2019-02-26T16:58:02.314Z,18.30
2019-02-26T17:00:28.818Z,17.27
2019-02-26T17:03:00.752Z,18.00
2019-02-26T17:05:28.916Z,16.97
2019-02-26T17:07:58.178Z,16.40
2019-02-26T17:10:30.402Z,17.13
2019-02-26T17:13:02.292Z,16.83
2019-02-26T17:15:30.818Z,16.53
2019-02-26T17:18:00.852Z,21.10
2019-02-26T17:20:29.942Z,18.03
2019-02-26T17:22:59.148Z,18.00
2019-02-26T17:25:29.004Z,18.17
2019-02-26T17:27:58.423Z,18.33
2019-02-26T17:30:27.480Z,17.80
2019-02-26T17:32:56.527Z,17.67
2019-02-26T17:35:28.576Z,16.53
2019-02-26T17:37:56.441Z,16.97
2019-02-26T17:40:26.605Z,17.07
2019-02-26T17:42:55.852Z,16.80
2019-02-26T17:45:27.193Z,17.30
2019-02-26T17:47:56.926Z,15.80
2019-02-26T17:50:29.244Z,15.87
2019-02-26T17:52:58.430Z,16.30
2019-02-26T17:55:30.830Z,16.40
2019-02-26T17:58:10.642Z,16.83
2019-02-26T18:00:41.376Z,16.50
2019-02-26T18:03:10.347Z,15.73
2019-02-26T18:05:50.582Z,16.17
2019-02-26T18:08:09.879Z,17.00
2019-02-26T18:10:39.172Z,15.63
2019-02-26T18:13:08.052Z,15.43
2019-02-26T18:15:37.503Z,16.57
2019-02-26T18:18:06.736Z,17.00
2019-02-26T18:20:35.572Z,17.23
2019-02-26T18:23:05.486Z,17.30
2019-02-26T18:25:34.499Z,18.03
2019-02-26T18:28:03.419Z,18.97
2019-02-26T18:30:33.114Z,18.17
2019-02-26T18:33:02.120Z,19.57
2019-02-26T18:35:31.543Z,17.87
2019-02-26T18:38:00.356Z,17.03
2019-02-26T18:40:29.252Z,17.80
2019-02-26T18:42:58.163Z,17.23
2019-02-26T18:45:29.139Z,17.10
2019-02-26T18:47:58.203Z,18.50
2019-02-26T18:50:29.557Z,17.00
2019-02-26T18:52:59.761Z,17.73
2019-02-26T18:55:35.364Z,16.37
2019-02-26T18:58:04.411Z,16.33
2019-02-26T19:00:33.445Z,17.47
2019-02-26T19:03:04.050Z,17.70
2019-02-26T19:05:33.405Z,17.17
2019-02-26T19:08:05.588Z,17.93
2019-02-26T19:10:33.076Z,17.00
2019-02-26T19:13:02.741Z,17.70
2019-02-26T19:15:32.265Z,17.50
2019-02-26T19:18:02.722Z,17.90
2019-02-26T19:20:32.197Z,17.50
2019-02-26T19:23:03.830Z,17.30
2019-02-26T19:25:32.831Z,17.53
2019-02-26T19:28:02.659Z,17.20
2019-02-26T19:30:32.285Z,17.77
2019-02-26T19:33:03.489Z,16.73
2019-02-26T19:35:38.171Z,16.67
2019-02-26T19:38:03.291Z,16.87
2019-02-26T19:40:38.710Z,17.03
2019-02-26T19:43:05.789Z,17.73
2019-02-26T19:45:34.872Z,15.83
2019-02-26T19:48:03.999Z,17.83
2019-02-26T19:50:39.091Z,18.47
2019-02-26T19:53:10.806Z,18.13
2019-02-26T19:55:39.716Z,18.27
2019-02-26T19:58:09.288Z,17.63
2019-02-26T20:00:42.423Z,17.60
2019-02-26T20:03:11.452Z,18.13
2019-02-26T20:05:45.951Z,21.63
2019-02-26T20:08:12.560Z,19.37
2019-02-26T20:10:41.639Z,17.97
2019-02-26T20:13:12.618Z,18.23
2019-02-26T20:15:41.714Z,18.27
2019-02-26T20:18:20.213Z,18.07
2019-02-26T20:20:45.726Z,18.27
2019-02-26T20:23:12.858Z,17.23
2019-02-26T20:25:42.741Z,17.47
2019-02-26T20:28:12.618Z,18.43
2019-02-26T20:30:41.528Z,17.93
2019-02-26T20:33:10.518Z,17.27
2019-02-26T20:35:39.323Z,17.50
2019-02-26T20:38:26.769Z,17.63
2019-02-26T20:41:15.089Z,18.03
2019-02-26T20:43:44.362Z,17.87
2019-02-26T20:46:14.638Z,19.67
2019-02-26T20:48:44.056Z,17.97
2019-02-26T20:51:14.969Z,18.90
2019-02-26T20:53:43.833Z,19.27
2019-02-26T21:03:08.199Z,17.90
2019-02-26T21:05:37.166Z,18.00
2019-02-26T21:08:07.119Z,18.03
2019-02-26T21:10:36.638Z,18.77
2019-02-26T21:13:05.614Z,19.03
2019-02-26T21:15:34.831Z,19.63
2019-02-26T21:18:03.841Z,19.03
2019-02-26T21:20:33.270Z,18.90
2019-02-26T21:23:02.273Z,18.33
2019-02-26T21:25:31.197Z,19.73
2019-02-26T21:28:01.473Z,19.40
2019-02-26T21:30:30.529Z,17.97
2019-02-26T21:33:00.004Z,18.23
2019-02-26T21:35:29.074Z,18.83
2019-02-26T21:42:11.312Z,18.57
2019-02-26T21:44:41.833Z,19.30
2019-02-26T21:47:10.795Z,19.03
2019-02-26T21:49:40.892Z,25.93
2019-02-26T21:52:09.825Z,24.23
2019-02-26T21:54:40.224Z,22.13
2019-02-26T21:57:10.285Z,20.03
2019-02-26T21:59:39.834Z,18.83
2019-02-26T22:02:09.825Z,19.27
2019-02-26T22:04:39.448Z,20.13
2019-02-26T22:07:08.985Z,18.93
2019-02-26T22:09:38.301Z,19.53
2019-02-26T22:12:07.526Z,18.50
2019-02-26T22:14:37.452Z,19.47
2019-02-26T22:17:08.312Z,18.67
2019-02-26T22:19:40.186Z,20.20
2019-02-26T22:22:09.245Z,19.07
2019-02-26T22:24:40.675Z,19.60
2019-02-26T22:27:08.699Z,19.73
2019-02-26T22:29:37.619Z,19.00
2019-02-26T22:32:06.456Z,19.37
2019-02-26T22:34:35.314Z,19.43
2019-02-26T22:37:07.282Z,19.60
2019-02-26T22:39:40.568Z,18.53
2019-02-26T22:42:09.395Z,20.90
2019-02-26T22:44:38.608Z,21.77
2019-02-26T22:47:07.703Z,20.80
2019-02-26T22:49:36.535Z,20.27
2019-02-26T22:52:06.518Z,20.60
2019-02-26T22:54:35.322Z,20.23
2019-02-26T22:57:04.154Z,22.03
2019-02-26T22:59:33.035Z,22.00
2019-02-26T23:02:01.998Z,21.33
2019-02-26T23:04:30.982Z,21.37
2019-02-26T23:06:59.944Z,22.03
2019-02-26T23:09:30.215Z,20.20
2019-02-26T23:11:59.096Z,21.20
2019-02-26T23:14:28.786Z,21.63
2019-02-26T23:16:58.549Z,22.07
2019-02-26T23:19:27.719Z,19.93
2019-02-26T23:21:56.676Z,20.50
2019-02-26T23:24:27.752Z,20.40
2019-02-26T23:26:56.600Z,21.03
2019-02-26T23:29:27.819Z,20.57
2019-02-26T23:31:56.438Z,21.37
2019-02-26T23:34:25.530Z,20.77
2019-02-26T23:36:54.559Z,20.70
2019-02-26T23:39:25.172Z,21.53
2019-02-26T23:41:56.800Z,18.93
2019-02-26T23:44:34.457Z,21.03
2019-02-26T23:47:03.412Z,20.57
2019-02-26T23:49:32.807Z,20.07
2019-02-26T23:52:01.691Z,18.77
2019-02-26T23:54:30.528Z,20.00
2019-02-26T23:56:59.408Z,19.30
2019-02-26T23:59:28.250Z,19.40
